DAUL/LOO METAR and TAF weather

Enter ICAO airport designator
Station Type Date Time Source
DAUL METAR 2019/02/23 00:00 UTC NOAA

DAUL 230000Z 00000KT CAVOK 08/00 Q1027


Station Type Date Time Source
DAUL Decoded METAR 2019/02/23 00:00 UTC NOAA

Laghouat, Algeria (DAUL) 33-46N 002-56E 765M
Feb 22, 2019 - 07:00 PM EST / 2019.02.23 0000 UTC
Wind: Calm:0
Visibility: greater than 7 mile(s):0
Temperature: 46 F (8 C)
Dew Point: 32 F (0 C)
Relative Humidity: 56%
Pressure (altimeter): 30.33 in. Hg (1027 hPa)
ob: DAUL 230000Z 00000KT CAVOK 08/00 Q1027
cycle: 0

Station Type Date Time Source
DAUL TAF 2017/11/09 18:03 UTC NOAA

TAF DAUL 091700Z 0918/1009 02012KT 9999 SCT030 SCT100 PROB40
TEMPO 0918/0924 35020G30KT 4000 -TSRA FEW030CB


Example: see airport list